This is the latest recevied weather packets stored in our database for station/object EUGENE. If no packets are shown the sender has not sent any weather packets the latest 1 day(s).
| Time | Temp. | Humidity | Pressure | Rain* | Wind** | Luminosity | Snow |
|---|---|---|---|---|---|---|---|
| 1778086633 | 13.33° C | 89% | 1021.2 hPa | 0 mm | - | - | - |
| 1778074933 | 11.11° C | 95% | 1020.6 hPa | 0 mm | - | - | - |
| 1778067733 | 9.44° C | 95% | 1019.4 hPa | 0 mm | - | - | - |
| 1778063233 | 10° C | 94% | 1018.6 hPa | 0 mm | - | - | - |
| 1778061432 | 10° C | 94% | 1018.4 hPa | 0 mm | - | - | - |
| 1778060533 | 10.56° C | 94% | 1018.3 hPa | 0 mm | - | - | - |
| 1778059632 | 10.56° C | 93% | 1018.2 hPa | 0 mm | - | - | - |
| 1778058732 | 11.11° C | 93% | 1018.1 hPa | 0 mm | - | - | - |
| 1778057832 | 11.11° C | 93% | 1018 hPa | 0 mm | - | - | - |
| 1778055132 | 12.22° C | 92% | 1017.8 hPa | 0 mm | - | - | - |
| 1778054232 | 12.78° C | 92% | 1017.8 hPa | 0 mm | - | - | - |
| 1778053332 | 12.78° C | 93% | 1017.8 hPa | 0 mm | - | - | - |
| 1778052432 | 12.78° C | 93% | 1017.8 hPa | 0 mm | - | - | - |
| 1778051533 | 12.78° C | 93% | 1017.7 hPa | 0 mm | - | - | - |
| 1778050632 | 12.78° C | 93% | 1017.5 hPa | 0 mm | - | - | - |
| 1778049732 | 12.78° C | 94% | 1017.5 hPa | 0 mm | - | - | - |
| 1778048832 | 12.22° C | 93% | 1017.4 hPa | 0 mm | - | - | - |
| 1778047933 | 12.22° C | 93% | 1017.2 hPa | 0 mm | - | - | - |
| 1778046132 | 12.22° C | 91% | 1017 hPa | 0 mm | - | - | - |
| 1778045232 | 12.22° C | 91% | 1016.7 hPa | 0 mm | - | - | - |
| 1778044332 | 12.78° C | 90% | 1016.6 hPa | 0 mm | - | - | - |
| 1778043432 | 12.78° C | 90% | 1016.4 hPa | 0 mm | - | - | - |
| 1778041632 | 13.33° C | 87% | 1016.1 hPa | 0 mm | - | - | - |
| 1778039832 | 14.44° C | 85% | 1015.8 hPa | 0 mm | - | - | - |
| 1778038032 | 15.56° C | 81% | 1015.4 hPa | 0 mm | - | - | - |
* Rain latest hour (hover to see other rain measurements)
** Current wind speed in m/s (hover to see current wind gust speed)